Time;durP1;ratioP1;P1;durP2;ratioP2;P2;SDS_P1;SDS_P2;PMS_P1;PMS_P2;Temp;Humidity;BMP_temperature;BMP_pressure;BME280_temperature;BME280_humidity;BME280_pressure;Samples;Min_cycle;Max_cycle;Signal;HPM_P1;HPM_P2
2023/05/30 05:52:00;;;;;;;0.75;0.75;;;11.40;99.90;;;;;;5090253;22;20636;31
2023/05/30 05:54:26;;;;;;;0.40;0.40;;;11.80;99.90;;;;;;4931928;29;20059;-61
2023/05/30 05:56:52;;;;;;;0.35;0.35;;;11.50;99.90;;;;;;4929840;29;20559;-59
2023/05/30 05:59:18;;;;;;;0.30;0.30;;;11.40;99.90;;;;;;4919819;29;20086;-59
2023/05/30 06:01:43;;;;;;;0.22;0.22;;;11.60;99.90;;;;;;4936708;29;20083;-61
2023/05/30 06:04:13;;;;;;;0.20;0.20;;;11.90;99.90;;;;;;4936202;29;20059;-60
2023/05/30 06:06:39;;;;;;;0.20;0.20;;;11.50;99.90;;;;;;4936699;29;20166;-59
2023/05/30 06:09:05;;;;;;;0.28;0.28;;;11.70;99.90;;;;;;4919405;29;20532;-59
2023/05/30 06:11:30;;;;;;;0.50;0.50;;;11.60;99.90;;;;;;4935760;29;20043;-60
2023/05/30 06:13:56;;;;;;;0.73;0.73;;;11.70;99.90;;;;;;4936505;29;20508;-59
2023/05/30 06:16:22;;;;;;;0.80;0.60;;;11.80;99.90;;;;;;4936514;29;20087;-60
2023/05/30 06:18:47;;;;;;;1.65;1.55;;;11.60;99.90;;;;;;4918256;29;20049;-60
2023/05/30 06:21:13;;;;;;;0.20;0.20;;;11.80;99.90;;;;;;4936568;29;20055;-60
2023/05/30 06:23:39;;;;;;;0.30;0.30;;;11.70;99.90;;;;;;4936324;29;20130;-60
2023/05/30 06:26:04;;;;;;;0.20;0.20;;;12.00;99.90;;;;;;4935400;29;20493;-60
2023/05/30 06:28:30;;;;;;;0.30;0.30;;;11.80;99.90;;;;;;4936273;29;20091;-60
2023/05/30 06:30:56;;;;;;;0.20;0.20;;;11.40;99.90;;;;;;4936054;29;20130;-60
2023/05/30 06:33:22;;;;;;;0.10;0.10;;;11.70;99.90;;;;;;4918513;29;20054;-60
2023/05/30 06:35:48;;;;;;;8.85;0.68;;;11.40;99.90;;;;;;4936193;29;20063;-59
2023/05/30 06:38:16;;;;;;;0.40;0.40;;;11.70;99.90;;;;;;4936115;29;20077;-60
2023/05/30 06:40:42;;;;;;;1.33;0.88;;;12.30;99.90;;;;;;4935064;29;20091;-60
2023/05/30 06:43:07;;;;;;;0.22;0.22;;;11.60;99.90;;;;;;4935875;29;20090;-59
2023/05/30 06:45:33;;;;;;;0.77;0.77;;;12.00;99.90;;;;;;4935729;29;20403;-60
2023/05/30 06:48:01;;;;;;;0.43;0.43;;;11.60;99.90;;;;;;4918215;29;20043;-61
2023/05/30 06:50:27;;;;;;;0.20;0.20;;;11.60;99.90;;;;;;4936253;29;20062;-60
2023/05/30 06:52:53;;;;;;;0.15;0.15;;;12.30;99.90;;;;;;4935542;29;20074;-60
2023/05/30 06:55:19;;;;;;;0.40;0.40;;;11.40;99.90;;;;;;4934976;29;20051;-60
2023/05/30 06:57:45;;;;;;;0.30;0.30;;;11.60;99.90;;;;;;4935637;29;20047;-61
2023/05/30 07:00:11;;;;;;;0.63;0.63;;;12.30;99.90;;;;;;4918745;29;20552;-60
2023/05/30 07:02:37;;;;;;;0.35;0.35;;;12.40;99.90;;;;;;4917795;29;20528;-60
2023/05/30 07:05:03;;;;;;;0.38;0.38;;;12.30;99.90;;;;;;4935557;29;20102;-60
2023/05/30 07:07:29;;;;;;;0.55;0.55;;;11.70;99.90;;;;;;4935474;29;20048;-60
2023/05/30 07:09:55;;;;;;;;;;;12.30;99.90;;;;;;4935067;29;20059;-60
2023/05/30 07:12:21;;;;;;;0.50;0.50;;;13.10;99.90;;;;;;4935321;29;19953;-60
2023/05/30 07:14:47;;;;;;;0.30;0.30;;;11.50;99.90;;;;;;4935152;29;20134;-58
2023/05/30 07:17:12;;;;;;;0.25;0.25;;;12.10;99.90;;;;;;4927674;29;20078;-60
2023/05/30 07:19:39;;;;;;;0.40;0.40;;;11.70;99.90;;;;;;4934083;29;20480;-60
2023/05/30 07:22:05;;;;;;;0.10;0.10;;;11.50;99.90;;;;;;4935097;29;20185;-59
2023/05/30 07:24:31;;;;;;;0.20;0.20;;;12.20;99.90;;;;;;4948115;29;20088;-59
2023/05/30 07:26:57;;;;;;;0.43;0.43;;;10.90;99.90;;;;;;4934124;29;20079;-60
2023/05/30 07:29:22;;;;;;;0.20;0.20;;;11.90;99.90;;;;;;4934215;29;20522;-61
2023/05/30 07:31:48;;;;;;;0.20;0.20;;;11.60;99.90;;;;;;4932810;29;20078;-59
2023/05/30 07:34:14;;;;;;;0.20;0.20;;;11.70;99.90;;;;;;4934174;29;20079;-59
2023/05/30 07:36:39;;;;;;;0.20;0.20;;;11.40;99.90;;;;;;4933756;29;20052;-60
2023/05/30 07:39:05;;;;;;;1.02;0.28;;;12.60;99.90;;;;;;4934468;29;20055;-60
2023/05/30 07:41:31;;;;;;;0.55;0.55;;;11.80;99.90;;;;;;4921601;29;20048;-59
2023/05/30 07:43:56;;;;;;;0.20;0.20;;;12.00;99.90;;;;;;4917854;29;20142;-60
2023/05/30 07:46:22;;;;;;;0.22;0.22;;;12.40;99.90;;;;;;4934008;29;20040;-60
2023/05/30 07:48:48;;;;;;;0.10;0.10;;;12.90;99.90;;;;;;4934849;29;20074;-60
2023/05/30 07:51:14;;;;;;;0.20;0.20;;;13.20;99.90;;;;;;4934772;29;20051;-60
2023/05/30 07:53:39;;;;;;;0.15;0.15;;;12.90;99.90;;;;;;4934258;29;20076;-60
2023/05/30 07:56:05;;;;;;;0.20;0.20;;;13.50;99.90;;;;;;4933908;29;20544;-60
2023/05/30 07:58:31;;;;;;;0.13;0.13;;;13.50;99.90;;;;;;4917727;29;20086;-60
2023/05/30 08:00:57;;;;;;;;;;;13.90;99.90;;;;;;4934115;29;20162;-60
2023/05/30 08:03:25;;;;;;;0.30;0.30;;;13.70;99.90;;;;;;4927981;29;20291;-59
2023/05/30 08:05:51;;;;;;;0.20;0.20;;;13.90;99.90;;;;;;4932591;29;20139;-59
2023/05/30 08:08:17;;;;;;;;;;;13.70;99.90;;;;;;4922749;29;20500;-60
2023/05/30 08:10:43;;;;;;;0.20;0.20;;;13.80;99.90;;;;;;4933855;29;19954;-60
2023/05/30 08:13:08;;;;;;;;;;;13.60;99.90;;;;;;4934390;29;20103;-59
2023/05/30 08:15:34;;;;;;;0.17;0.17;;;13.70;99.90;;;;;;4933642;29;19923;-60
2023/05/30 08:18:00;;;;;;;0.20;0.20;;;13.90;99.90;;;;;;4934553;29;20114;-60
2023/05/30 08:20:26;;;;;;;0.10;0.10;;;13.50;99.90;;;;;;4934292;29;20131;-60
2023/05/30 08:22:52;;;;;;;;;;;13.20;99.90;;;;;;4917187;29;20472;-60
2023/05/30 08:25:24;;;;;;;0.13;0.13;;;13.60;99.90;;;;;;4934431;29;20013;-60
2023/05/30 08:27:55;;;;;;;0.20;0.20;;;12.70;99.90;;;;;;4934213;29;20539;-60
2023/05/30 08:30:21;;;;;;;0.10;0.10;;;13.10;99.90;;;;;;4933562;29;20051;-60
2023/05/30 08:32:46;;;;;;;0.20;0.20;;;12.50;99.90;;;;;;4934289;29;20074;-61
2023/05/30 08:35:13;;;;;;;;;;;12.70;99.90;;;;;;4933311;29;20087;-60
2023/05/30 08:37:39;;;;;;;0.15;0.15;;;13.10;99.90;;;;;;4933158;29;19929;-60
2023/05/30 08:40:10;;;;;;;0.20;0.20;;;12.90;99.90;;;;;;4931767;29;20058;-60
2023/05/30 08:42:37;;;;;;;0.10;0.10;;;12.30;99.90;;;;;;4932450;29;20090;-61
2023/05/30 08:45:04;;;;;;;0.10;0.10;;;12.10;99.90;;;;;;4933746;29;20051;-61
2023/05/30 08:47:31;;;;;;;0.20;0.20;;;12.20;99.90;;;;;;4934250;29;20119;-61
2023/05/30 08:50:01;;;;;;;0.20;0.20;;;12.50;99.90;;;;;;4933883;29;20073;-60
2023/05/30 08:52:28;;;;;;;0.10;0.10;;;12.40;99.90;;;;;;4934018;29;20064;-60
2023/05/30 08:55:16;;;;;;;0.15;0.15;;;13.20;99.90;;;;;;4934161;29;20074;-61
2023/05/30 08:58:04;;;;;;;0.15;0.15;;;13.10;99.90;;;;;;4933264;29;20095;-60
2023/05/30 09:00:31;;;;;;;;;;;13.40;99.90;;;;;;4934722;29;20489;-60
2023/05/30 09:02:57;;;;;;;;;;;13.80;99.90;;;;;;4934534;29;19934;-60
2023/05/30 09:05:25;;;;;;;1.38;0.63;;;13.60;99.90;;;;;;4934141;29;19922;-60
2023/05/30 09:07:52;;;;;;;1.10;0.38;;;13.70;99.90;;;;;;4932727;29;20047;-60
2023/05/30 09:10:19;;;;;;;0.15;0.15;;;13.40;99.90;;;;;;4937901;29;20052;-60
2023/05/30 09:12:45;;;;;;;0.20;0.20;;;13.60;99.90;;;;;;4937868;29;20047;-60
2023/05/30 09:15:11;;;;;;;0.20;0.20;;;13.50;99.90;;;;;;4937812;29;20044;-61
2023/05/30 09:17:37;;;;;;;0.20;0.20;;;13.70;99.90;;;;;;4937789;29;20044;-61
2023/05/30 09:20:02;;;;;;;0.20;0.20;;;14.20;99.90;;;;;;4937640;29;20134;-61
2023/05/30 09:22:28;;;;;;;;;;;14.00;99.90;;;;;;4937901;29;20082;-61
2023/05/30 09:24:59;;;;;;;0.20;0.20;;;14.20;99.90;;;;;;4937892;29;20299;-60
2023/05/30 09:27:26;;;;;;;0.13;0.13;;;14.00;99.90;;;;;;4937532;29;20047;-60
2023/05/30 09:29:52;;;;;;;0.40;0.30;;;16.00;99.90;;;;;;4936503;29;20063;-60
2023/05/30 09:32:19;;;;;;;0.10;0.10;;;13.60;99.90;;;;;;4937452;29;20090;-60
2023/05/30 09:34:56;;;;;;;0.10;0.10;;;13.90;99.90;;;;;;4937292;29;20058;-61
2023/05/30 09:37:25;;;;;;;0.10;0.10;;;14.50;99.90;;;;;;4937560;29;20047;-60
2023/05/30 09:40:24;;;;;;;1.08;0.25;;;14.50;99.90;;;;;;4937430;29;20062;-60
2023/05/30 09:42:51;;;;;;;0.10;0.10;;;14.30;99.90;;;;;;4905162;29;20056;-60
2023/05/30 09:45:22;;;;;;;0.22;0.22;;;13.70;99.90;;;;;;4937076;29;20051;-61
2023/05/30 09:47:49;;;;;;;0.13;0.13;;;14.00;99.90;;;;;;4937214;29;20103;-60
2023/05/30 09:50:18;;;;;;;0.15;0.15;;;14.70;99.90;;;;;;4937217;29;20135;-60
2023/05/30 09:52:44;;;;;;;0.17;0.17;;;14.40;99.90;;;;;;4936912;29;20456;-60
2023/05/30 09:55:14;;;;;;;0.20;0.20;;;14.80;99.90;;;;;;4936829;29;20504;-60
2023/05/30 09:57:45;;;;;;;0.10;0.10;;;14.30;99.90;;;;;;4929416;29;20420;-61
2023/05/30 10:00:13;;;;;;;0.20;0.20;;;14.70;99.90;;;;;;4936549;29;20055;-60
2023/05/30 10:02:41;;;;;;;0.10;0.10;;;14.80;99.90;;;;;;4936711;29;20051;-59
2023/05/30 10:05:24;;;;;;;0.20;0.20;;;14.80;99.90;;;;;;4936462;29;20051;-59
2023/05/30 10:07:57;;;;;;;0.20;0.20;;;14.60;99.90;;;;;;4936491;29;20087;-58
2023/05/30 10:10:23;;;;;;;0.10;0.10;;;14.50;99.90;;;;;;4934148;29;20079;-59
2023/05/30 10:12:51;;;;;;;0.40;0.40;;;13.70;99.90;;;;;;4935912;29;20218;-59
2023/05/30 10:15:18;;;;;;;0.10;0.10;;;13.90;99.90;;;;;;4935737;29;20052;-59
2023/05/30 10:17:53;;;;;;;0.10;0.10;;;14.10;99.90;;;;;;4935847;29;20484;-59
2023/05/30 10:20:21;;;;;;;0.10;0.10;;;13.70;99.90;;;;;;4935288;29;20560;-59
2023/05/30 10:22:52;;;;;;;0.70;0.65;;;14.00;99.90;;;;;;4935606;29;20059;-59
2023/05/30 10:25:19;;;;;;;0.28;0.28;;;14.30;99.90;;;;;;4935463;29;20047;-58
2023/05/30 10:27:51;;;;;;;0.15;0.15;;;14.40;99.90;;;;;;4932715;29;20052;-59
2023/05/30 10:30:28;;;;;;;0.10;0.10;;;14.40;99.90;;;;;;4935958;29;20047;-59
2023/05/30 10:33:04;;;;;;;0.10;0.10;;;14.80;99.90;;;;;;4935546;29;20059;-59
2023/05/30 10:35:32;;;;;;;0.30;0.30;;;14.70;99.90;;;;;;4936207;29;20126;-60
2023/05/30 10:37:59;;;;;;;0.50;0.50;;;14.60;99.90;;;;;;4919619;29;20497;-60
2023/05/30 10:40:50;;;;;;;0.20;0.20;;;15.20;99.90;;;;;;4936170;29;20059;-59
2023/05/30 10:43:43;;;;;;;0.22;0.22;;;15.00;99.90;;;;;;4936114;29;20058;-59
2023/05/30 10:46:18;;;;;;;0.30;0.30;;;14.50;99.90;;;;;;4936274;29;20056;-59
2023/05/30 10:49:03;;;;;;;0.52;0.30;;;15.20;99.90;;;;;;4936505;29;20134;-60
2023/05/30 10:51:29;;;;;;;0.20;0.20;;;15.20;99.90;;;;;;4936181;29;20493;-60
2023/05/30 10:53:57;;;;;;;;;;;15.20;99.90;;;;;;4936192;29;20063;-60
2023/05/30 10:56:28;;;;;;;0.13;0.13;;;14.80;99.90;;;;;;4929579;29;19926;-59
2023/05/30 10:58:55;;;;;;;0.45;0.40;;;15.00;99.90;;;;;;4935293;29;20058;-60
2023/05/30 11:01:31;;;;;;;0.30;0.20;;;15.40;99.90;;;;;;4935778;29;20062;-60
2023/05/30 11:04:13;;;;;;;0.10;0.10;;;14.80;99.90;;;;;;4935480;29;20047;-59
2023/05/30 11:06:44;;;;;;;0.30;0.20;;;14.90;99.90;;;;;;4935368;29;20500;-59
2023/05/30 11:09:14;;;;;;;0.40;0.22;;;15.10;99.90;;;;;;4935502;29;20424;-59
2023/05/30 11:11:54;;;;;;;0.15;0.15;;;15.30;99.90;;;;;;4935289;29;20061;-59
2023/05/30 11:14:32;;;;;;;0.63;0.35;;;15.40;99.90;;;;;;4935350;29;20087;-59
2023/05/30 11:17:02;;;;;;;0.15;0.15;;;15.50;99.90;;;;;;4935209;29;20485;-59
2023/05/30 11:19:37;;;;;;;0.10;0.10;;;15.30;99.90;;;;;;4935642;29;20067;-60
2023/05/30 11:22:10;;;;;;;0.47;0.47;;;15.10;99.90;;;;;;4935426;29;20055;-59
2023/05/30 11:24:36;;;;;;;0.20;0.20;;;15.20;99.90;;;;;;4935168;29;20051;-60
2023/05/30 11:27:09;;;;;;;;;;;14.80;99.90;;;;;;4935030;29;20052;-61
2023/05/30 11:29:44;;;;;;;0.32;0.32;;;15.00;99.90;;;;;;4934604;29;19974;-60
2023/05/30 11:32:13;;;;;;;1.00;0.65;;;14.90;99.90;;;;;;4917164;29;20358;-60
2023/05/30 11:34:39;;;;;;;0.15;0.15;;;14.80;99.90;;;;;;4934277;29;20048;-60
2023/05/30 11:37:05;;;;;;;;;;;14.80;99.90;;;;;;4934652;29;20087;-61
2023/05/30 11:39:32;;;;;;;0.10;0.10;;;15.20;99.90;;;;;;4934764;29;19923;-59
2023/05/30 11:41:58;;;;;;;0.25;0.25;;;15.50;99.90;;;;;;4928924;29;20073;-60
2023/05/30 11:44:24;;;;;;;0.10;0.10;;;16.10;99.90;;;;;;4931356;29;20059;-60
2023/05/30 11:46:56;;;;;;;;;;;16.10;99.90;;;;;;4934635;29;20043;-60
2023/05/30 11:49:22;;;;;;;0.10;0.10;;;16.40;99.90;;;;;;4934933;29;19922;-59
2023/05/30 11:51:47;;;;;;;;;;;16.20;99.90;;;;;;4935105;29;20051;-59
2023/05/30 11:54:14;;;;;;;0.10;0.10;;;15.80;99.90;;;;;;4934899;29;19927;-59
2023/05/30 11:56:39;;;;;;;0.10;0.10;;;16.10;99.90;;;;;;4934769;29;20135;-60
2023/05/30 11:59:07;;;;;;;;;;;15.90;99.90;;;;;;4918492;29;20171;-59
2023/05/30 12:01:33;;;;;;;0.30;0.20;;;15.90;99.90;;;;;;4917913;29;20002;-59
2023/05/30 12:03:58;;;;;;;;;;;16.70;99.90;;;;;;4918221;29;20485;-60
2023/05/30 12:06:24;;;;;;;0.10;0.10;;;16.70;99.90;;;;;;4934709;29;20013;-59
2023/05/30 12:08:51;;;;;;;0.10;0.10;;;17.30;99.90;;;;;;4934693;29;20103;-60
2023/05/30 12:11:17;;;;;;;0.10;0.10;;;16.80;99.90;;;;;;4934628;29;20444;-59
2023/05/30 12:13:42;;;;;;;0.20;0.20;;;16.30;99.90;;;;;;4934836;29;20131;-59
2023/05/30 12:16:11;;;;;;;0.10;0.10;;;16.10;99.90;;;;;;4934761;29;20130;-59
2023/05/30 12:18:37;;;;;;;0.10;0.10;;;15.40;99.90;;;;;;4934666;29;20044;-60
2023/05/30 12:21:03;;;;;;;0.10;0.10;;;15.30;99.90;;;;;;4934629;29;20058;-59
2023/05/30 12:23:29;;;;;;;0.20;0.20;;;15.30;99.90;;;;;;4934511;29;20047;-60
2023/05/30 12:25:56;;;;;;;0.10;0.10;;;14.70;99.90;;;;;;4917323;29;20039;-59
2023/05/30 12:28:22;;;;;;;0.45;0.45;;;15.20;99.90;;;;;;4917756;29;20051;-59
2023/05/30 12:30:51;;;;;;;0.30;0.30;;;14.70;99.90;;;;;;4934555;29;20083;-59
2023/05/30 12:33:18;;;;;;;0.20;0.20;;;14.80;99.90;;;;;;4934505;29;20056;-59
2023/05/30 12:35:45;;;;;;;0.10;0.10;;;15.00;99.90;;;;;;4934503;29;20069;-59
2023/05/30 12:38:19;;;;;;;0.75;0.47;;;15.20;99.90;;;;;;4934307;29;20536;-60
2023/05/30 12:40:51;;;;;;;0.20;0.20;;;15.20;99.90;;;;;;4934308;29;20058;-59
2023/05/30 12:43:29;;;;;;;0.10;0.10;;;15.60;99.90;;;;;;4936710;29;20046;-59
2023/05/30 12:45:59;;;;;;;0.10;0.10;;;15.60;99.90;;;;;;4938282;29;20048;-59
2023/05/30 12:48:25;;;;;;;0.22;0.22;;;15.90;99.90;;;;;;4938234;29;20052;-59
2023/05/30 12:50:52;;;;;;;;;;;15.80;99.90;;;;;;4938492;29;20058;-59
2023/05/30 12:53:18;;;;;;;0.30;0.10;;;16.30;99.90;;;;;;4921024;29;20655;-60
2023/05/30 12:55:44;;;;;;;0.10;0.10;;;15.60;99.90;;;;;;4938300;29;20055;-59
2023/05/30 12:58:09;;;;;;;0.10;0.10;;;15.70;99.90;;;;;;4921242;29;20048;-60
2023/05/30 13:00:35;;;;;;;0.20;0.20;;;16.10;99.90;;;;;;4938175;29;20076;-60
2023/05/30 13:03:02;;;;;;;0.10;0.10;;;15.90;99.90;;;;;;4935007;29;20051;-60
2023/05/30 13:05:30;;;;;;;0.10;0.10;;;15.80;99.90;;;;;;4928851;29;20048;-60
2023/05/30 13:07:55;;;;;;;0.10;0.10;;;15.40;99.90;;;;;;4937783;29;20051;-60
2023/05/30 13:10:22;;;;;;;0.10;0.10;;;15.40;99.90;;;;;;4937800;29;20382;-59
2023/05/30 13:12:48;;;;;;;1.10;0.30;;;15.10;99.90;;;;;;4937402;29;20058;-60
2023/05/30 13:15:14;;;;;;;0.10;0.10;;;14.50;99.90;;;;;;4937815;29;20043;-60
2023/05/30 13:17:39;;;;;;;0.10;0.10;;;14.80;99.90;;;;;;4937330;29;20059;-59
2023/05/30 13:20:06;;;;;;;0.25;0.25;;;15.20;99.90;;;;;;4936566;29;20509;-59
2023/05/30 13:22:32;;;;;;;0.10;0.10;;;15.20;99.90;;;;;;4937606;29;20052;-59
2023/05/30 13:24:58;;;;;;;0.10;0.10;;;15.20;99.90;;;;;;4937506;29;20476;-59
2023/05/30 13:27:24;;;;;;;;;;;15.00;99.90;;;;;;4937182;29;20039;-59
2023/05/30 13:29:50;;;;;;;0.10;0.10;;;15.00;99.90;;;;;;4937268;29;19930;-59
2023/05/30 13:32:16;;;;;;;0.10;0.10;;;15.30;99.90;;;;;;4937204;29;20094;-59
2023/05/30 13:34:41;;;;;;;;;;;15.70;99.90;;;;;;4934205;29;20083;-59
2023/05/30 13:37:07;;;;;;;0.10;0.10;;;15.80;99.90;;;;;;4935891;29;19922;-59
2023/05/30 13:39:33;;;;;;;0.20;0.20;;;16.00;99.90;;;;;;4920393;29;20040;-60
2023/05/30 13:41:58;;;;;;;0.20;0.20;;;15.60;99.90;;;;;;4937314;29;20054;-59
2023/05/30 13:44:24;;;;;;;0.10;0.10;;;15.50;99.90;;;;;;4937308;29;20134;-59
2023/05/30 13:46:52;;;;;;;0.30;0.20;;;15.60;99.90;;;;;;4937227;29;20055;-59
2023/05/30 13:49:18;;;;;;;0.10;0.10;;;15.50;99.90;;;;;;4937111;29;20087;-59
2023/05/30 13:51:44;;;;;;;0.10;0.10;;;15.80;99.90;;;;;;4937324;29;20052;-59
2023/05/30 13:54:09;;;;;;;0.10;0.10;;;16.00;99.90;;;;;;4936200;29;20404;-59
2023/05/30 13:56:35;;;;;;;0.10;0.10;;;15.80;99.90;;;;;;4937180;29;20131;-60
2023/05/30 13:59:01;;;;;;;0.40;0.40;;;15.70;99.90;;;;;;4936993;29;20414;-59
2023/05/30 14:01:30;;;;;;;0.80;0.25;;;15.50;99.90;;;;;;4936977;29;20055;-60
2023/05/30 14:03:57;;;;;;;3.72;0.90;;;15.40;99.90;;;;;;4936777;29;20066;-59
2023/05/30 14:06:22;;;;;;;0.30;0.30;;;15.40;99.90;;;;;;4936986;29;20065;-59
2023/05/30 14:08:48;;;;;;;0.47;0.15;;;15.60;99.90;;;;;;4936908;29;20502;-60
2023/05/30 14:11:14;;;;;;;0.15;0.13;;;15.60;99.90;;;;;;4919913;29;20135;-59
2023/05/30 14:13:41;;;;;;;0.85;0.80;;;15.30;99.90;;;;;;4936776;29;20055;-60
2023/05/30 14:16:07;;;;;;;0.15;0.15;;;15.50;99.90;;;;;;4936489;29;20055;-60
2023/05/30 14:18:32;;;;;;;0.00;0.00;;;15.60;99.90;;;;;;4936282;29;20098;-60
2023/05/30 14:20:58;;;;;;;0.22;0.22;;;15.10;99.90;;;;;;4936499;29;20059;-59
2023/05/30 14:23:24;;;;;;;0.30;0.30;;;14.80;99.90;;;;;;4936250;29;20121;-60
2023/05/30 14:25:50;;;;;;;0.75;0.75;;;14.50;99.90;;;;;;4936348;29;20055;-59
2023/05/30 14:28:16;;;;;;;0.13;0.13;;;14.60;99.90;;;;;;4936234;29;20074;-60
2023/05/30 14:30:42;;;;;;;0.10;0.10;;;14.10;99.90;;;;;;4936132;29;20044;-60
2023/05/30 14:33:08;;;;;;;;;;;14.20;99.90;;;;;;4936432;29;20051;-60
2023/05/30 14:35:34;;;;;;;0.45;0.22;;;14.10;99.90;;;;;;4936315;29;19929;-60
2023/05/30 14:38:00;;;;;;;0.10;0.10;;;14.30;99.90;;;;;;4936189;29;20043;-60
2023/05/30 14:40:25;;;;;;;;;;;14.50;99.90;;;;;;4936478;29;20055;-60
2023/05/30 14:42:51;;;;;;;0.10;0.10;;;14.40;99.90;;;;;;4936000;29;19922;-60
2023/05/30 14:45:17;;;;;;;0.32;0.32;;;14.70;99.90;;;;;;4935915;29;20047;-59
2023/05/30 14:47:42;;;;;;;;;;;15.00;99.90;;;;;;4918954;29;20054;-60
2023/05/30 14:50:09;;;;;;;0.38;0.38;;;14.80;99.90;;;;;;4935698;29;20021;-60
2023/05/30 14:52:35;;;;;;;0.68;0.68;;;14.80;99.90;;;;;;4935872;29;20093;-60
2023/05/30 14:55:01;;;;;;;;;;;14.60;99.90;;;;;;4936203;29;20485;-60
2023/05/30 14:57:26;;;;;;;0.10;0.10;;;14.70;99.90;;;;;;4935782;29;19929;-60
2023/05/30 14:59:52;;;;;;;;;;;14.70;99.90;;;;;;4936062;29;20044;-59
2023/05/30 15:02:18;;;;;;;0.13;0.13;;;14.60;99.90;;;;;;4935560;29;19923;-60
2023/05/30 15:04:43;;;;;;;0.10;0.10;;;15.00;99.90;;;;;;4935954;29;20767;-59
2023/05/30 15:07:09;;;;;;;;;;;15.20;99.90;;;;;;4934978;29;20536;-59
2023/05/30 15:09:35;;;;;;;0.10;0.10;;;14.80;99.90;;;;;;4935669;29;19927;-60
2023/05/30 15:12:00;;;;;;;;;;;15.00;99.90;;;;;;4934893;29;20055;-59
2023/05/30 15:14:26;;;;;;;0.20;0.20;;;14.50;99.90;;;;;;4934555;29;19965;-59
2023/05/30 15:16:52;;;;;;;0.10;0.10;;;14.60;99.90;;;;;;4950227;29;20083;-60
2023/05/30 15:19:18;;;;;;;;;;;14.60;99.90;;;;;;4935940;29;20511;-60
2023/05/30 15:21:44;;;;;;;2.25;1.00;;;14.40;99.90;;;;;;4926461;29;20013;-59
2023/05/30 15:24:09;;;;;;;;;;;14.00;99.90;;;;;;4935570;29;20051;-60
2023/05/30 15:26:35;;;;;;;4.85;0.40;;;14.60;99.90;;;;;;4935049;29;19977;-60
2023/05/30 15:29:00;;;;;;;;;;;14.00;99.90;;;;;;4935150;29;20059;-59
2023/05/30 15:31:27;;;;;;;0.25;0.25;;;13.70;99.90;;;;;;4934218;29;19930;-60
2023/05/30 15:33:53;;;;;;;0.20;0.20;;;14.00;99.90;;;;;;4935340;29;20055;-60
2023/05/30 15:36:20;;;;;;;;;;;14.20;99.90;;;;;;4934600;29;20515;-60
2023/05/30 15:38:45;;;;;;;0.32;0.32;;;13.90;99.90;;;;;;4935205;29;19922;-60
2023/05/30 15:41:11;;;;;;;;;;;14.30;99.90;;;;;;4935690;29;20058;-59
2023/05/30 15:43:37;;;;;;;0.10;0.10;;;14.10;99.90;;;;;;4934169;29;19977;-60
2023/05/30 15:46:02;;;;;;;;;;;14.10;99.90;;;;;;4934921;29;20052;-59
2023/05/30 15:48:28;;;;;;;0.10;0.10;;;14.00;99.90;;;;;;4931570;29;19926;-59
2023/05/30 15:50:54;;;;;;;;;;;14.40;99.90;;;;;;4933505;29;20051;-60
2023/05/30 15:53:20;;;;;;;0.13;0.13;;;14.30;99.90;;;;;;4932823;29;19986;-59
2023/05/30 15:55:45;;;;;;;;;;;14.30;99.90;;;;;;4934873;29;20403;-59
2023/05/30 15:58:12;;;;;;;0.30;0.30;;;14.40;99.90;;;;;;4933718;29;19927;-60
2023/05/30 16:00:38;;;;;;;0.10;0.10;;;14.20;99.90;;;;;;4934709;29;20503;-59
2023/05/30 16:03:03;;;;;;;;;;;14.20;99.90;;;;;;4918153;29;20052;-60
2023/05/30 16:05:29;;;;;;;0.10;0.10;;;14.00;99.90;;;;;;4934639;29;19923;-59
2023/05/30 16:07:54;;;;;;;;;;;13.90;99.90;;;;;;4935105;29;20048;-59
2023/05/30 16:10:20;;;;;;;0.43;0.43;;;13.70;99.90;;;;;;4934803;29;19982;-59
2023/05/30 16:12:46;;;;;;;;;;;14.10;99.90;;;;;;4934416;29;20056;-59
2023/05/30 16:15:11;;;;;;;2.35;0.47;;;14.10;99.90;;;;;;4917593;29;19962;-60
2023/05/30 16:17:37;;;;;;;;;;;13.60;99.90;;;;;;4934579;29;20051;-59
2023/05/30 16:20:04;;;;;;;0.10;0.10;;;14.30;99.90;;;;;;4934554;29;19980;-59
2023/05/30 16:22:30;;;;;;;0.17;0.17;;;13.90;99.90;;;;;;4933220;29;20079;-59
2023/05/30 16:24:55;;;;;;;;;;;13.90;99.90;;;;;;4934744;29;20043;-59
2023/05/30 16:27:21;;;;;;;0.47;0.47;;;14.20;99.90;;;;;;4933875;29;19934;-60
2023/05/30 16:29:48;;;;;;;0.10;0.10;;;13.70;99.90;;;;;;4917153;29;20492;-59
2023/05/30 16:32:13;;;;;;;;;;;14.00;99.90;;;;;;4934736;29;20055;-59
2023/05/30 16:34:39;;;;;;;0.25;0.25;;;13.90;99.90;;;;;;4934523;29;19974;-59
2023/05/30 16:37:05;;;;;;;;;;;14.10;99.90;;;;;;4934736;29;20054;-59
2023/05/30 16:39:31;;;;;;;0.10;0.10;;;13.90;99.90;;;;;;4934225;29;19930;-60
2023/05/30 16:41:57;;;;;;;0.10;0.10;;;14.40;99.90;;;;;;4933586;29;20111;-59
2023/05/30 16:44:24;;;;;;;;;;;13.90;99.90;;;;;;4934677;29;20047;-60
2023/05/30 16:46:50;;;;;;;0.22;0.22;;;13.80;99.90;;;;;;4933882;29;20099;-60
2023/05/30 16:49:15;;;;;;;;;;;13.80;99.90;;;;;;4934820;29;20406;-60
2023/05/30 16:51:41;;;;;;;0.20;0.20;;;13.70;99.90;;;;;;4917330;29;19934;-59
2023/05/30 16:54:07;;;;;;;;;;;14.00;99.90;;;;;;4914255;29;20063;-59
2023/05/30 16:56:33;;;;;;;0.20;0.20;;;13.90;99.90;;;;;;4914337;29;19951;-59
2023/05/30 16:58:59;;;;;;;;;;;13.70;99.90;;;;;;4915544;29;20110;-59
2023/05/30 17:01:25;;;;;;;0.10;0.10;;;13.60;99.90;;;;;;4908841;29;20014;-60
2023/05/30 17:03:51;;;;;;;0.10;0.10;;;13.50;99.90;;;;;;4913913;29;20047;-60
2023/05/30 17:06:17;;;;;;;;;;;13.30;99.90;;;;;;4914832;29;20055;-58
2023/05/30 17:08:42;;;;;;;0.45;0.45;;;13.30;99.90;;;;;;4914161;29;19922;-59
2023/05/30 17:11:08;;;;;;;;;;;13.30;99.90;;;;;;4915072;29;20504;-59
2023/05/30 17:13:34;;;;;;;0.17;0.17;;;13.50;99.90;;;;;;4910041;29;20014;-59
2023/05/30 17:16:00;;;;;;;0.13;0.13;;;13.50;99.90;;;;;;4895754;29;20096;-59
2023/05/30 17:18:27;;;;;;;0.38;0.38;;;13.50;99.90;;;;;;4910198;29;20052;-59
2023/05/30 17:20:52;;;;;;;0.30;0.20;;;13.60;99.90;;;;;;4902397;29;20063;-60
2023/05/30 17:23:18;;;;;;;0.10;0.10;;;13.30;99.90;;;;;;4914147;29;20056;-59
2023/05/30 17:25:44;;;;;;;;;;;13.60;99.90;;;;;;4915075;29;20130;-59
2023/05/30 17:28:10;;;;;;;0.30;0.30;;;13.90;99.90;;;;;;4914325;29;19983;-59
2023/05/30 17:30:36;;;;;;;0.20;0.20;;;13.60;99.90;;;;;;4916679;29;20056;-59
2023/05/30 17:33:05;;;;;;;;;;;13.70;99.90;;;;;;4918734;29;20520;-60
2023/05/30 17:35:32;;;;;;;0.10;0.10;;;13.60;99.90;;;;;;4918307;29;19927;-60
2023/05/30 17:37:59;;;;;;;0.10;0.10;;;13.80;99.90;;;;;;4918021;29;20046;-60
2023/05/30 17:40:25;;;;;;;0.50;0.50;;;13.50;99.90;;;;;;4916761;29;20131;-60
2023/05/30 17:42:51;;;;;;;;;;;13.80;99.90;;;;;;4918292;29;20131;-59
2023/05/30 17:45:16;;;;;;;0.10;0.10;;;13.50;99.90;;;;;;4916794;29;19927;-60
2023/05/30 17:47:42;;;;;;;;;;;13.90;99.90;;;;;;4918400;29;20489;-60
2023/05/30 17:50:08;;;;;;;0.10;0.10;;;13.70;99.90;;;;;;4915222;29;19927;-59
2023/05/30 17:52:33;;;;;;;;;;;13.30;99.90;;;;;;4919853;29;20059;-59
2023/05/30 17:55:00;;;;;;;0.10;0.10;;;13.60;99.90;;;;;;4936724;29;19970;-60
2023/05/30 17:57:26;;;;;;;0.10;0.10;;;13.30;99.90;;;;;;4935362;29;20063;-59
2023/05/30 17:59:51;;;;;;;0.10;0.10;;;13.70;99.90;;;;;;4935692;29;20047;-59
2023/05/30 18:02:17;;;;;;;;;;;13.90;99.90;;;;;;4936846;29;20606;-59
2023/05/30 18:04:43;;;;;;;0.80;0.80;;;13.70;99.90;;;;;;4936533;29;20386;-60
2023/05/30 18:07:09;;;;;;;;;;;13.70;99.90;;;;;;4937047;29;20556;-59
2023/05/30 18:09:34;;;;;;;0.30;0.30;;;13.40;99.90;;;;;;4936311;29;19923;-59
2023/05/30 18:12:00;;;;;;;;;;;13.70;99.90;;;;;;4936767;29;20109;-59
2023/05/30 18:14:26;;;;;;;0.15;0.15;;;13.10;99.90;;;;;;4935744;29;19969;-59
2023/05/30 18:16:54;;;;;;;0.30;0.30;;;13.30;99.90;;;;;;4934878;29;20043;-59
2023/05/30 18:19:20;;;;;;;0.20;0.20;;;13.40;99.90;;;;;;4936317;29;20063;-59
2023/05/30 18:21:46;;;;;;;;;;;13.50;99.90;;;;;;4936871;29;20051;-60
2023/05/30 18:24:13;;;;;;;0.45;0.40;;;13.30;99.90;;;;;;4936077;29;19929;-59
2023/05/30 18:26:39;;;;;;;0.63;0.63;;;13.30;99.90;;;;;;4936236;29;20527;-59
2023/05/30 18:29:05;;;;;;;0.10;0.10;;;13.50;99.90;;;;;;4934475;29;20047;-60
2023/05/30 18:31:31;;;;;;;0.30;0.30;;;13.50;99.90;;;;;;4935561;29;20062;-59
2023/05/30 18:33:57;;;;;;;0.20;0.20;;;13.60;99.90;;;;;;4935661;29;20047;-60
2023/05/30 18:36:23;;;;;;;0.20;0.20;;;13.30;99.90;;;;;;4936408;29;20048;-59
2023/05/30 18:38:51;;;;;;;;;;;13.30;99.90;;;;;;4936068;29;20503;-59
2023/05/30 18:41:16;;;;;;;0.10;0.10;;;13.40;99.90;;;;;;4935704;29;19923;-59
2023/05/30 18:43:42;;;;;;;0.20;0.20;;;13.10;99.90;;;;;;4935008;29;20126;-60
2023/05/30 18:46:08;;;;;;;;;;;13.10;99.90;;;;;;4935790;29;20126;-59
2023/05/30 18:48:35;;;;;;;0.20;0.20;;;13.10;99.90;;;;;;4933437;29;19922;-59
2023/05/30 18:51:02;;;;;;;0.35;0.35;;;13.30;99.90;;;;;;4933341;29;20091;-59
2023/05/30 18:53:27;;;;;;;0.30;0.30;;;13.00;99.90;;;;;;4935228;29;20056;-59